Dobrodošli na spletni strani vremenske postaje Senovo. Vse informacije so informativnega značaja, saj vremenska postaja ni del državne mreže meteoroloških postaj. AKTUALNIH OBVESTIL NI.


Sneg/Led Od: 23-02-2018 00:00 Do: 23:59 Opozorilo za: Sneg/Led Stopnja: Rumena info button

Pogled proti Armezu več informacij Pogled proti Armezu


Lisca več informacij Lisca


Radar strel več informacij blitzortung!


opozorilo za sneg/led več informacij rain snow radar


Obiščite še:

Template documentation
and downloads

And another site



Weather Underground, zgodovina - Tekstovno

Dnevni povzetek za Januar 19, 2018 Enote:  Obe    Angleško   Metrično
« Predhodni Dan
Naslednji Dan »
Dnevni Tedenski Mesečni Letni Po meri
  Višja: Nižja: Povprečje:
Temperatura: TemperatureC °F /  -17.8 °C 2.5 °F /  -16.4 °C 5 °F /  -15 °C
Točka rosišča: DewpointC °F /  -17.8 °C -0.6 °F /  -18.1 °C 2.2 °F /  -16.6 °C
Vlažnost: Humidity % 59 % 82 %
Hitrost vetra: WindSpeedKMH mph /  0 km/h - 2.2 mph /  3.5 km/h
Sunki vetra: WindSpeedGustKMH mph /  0 km/h - -
Veter:- - SW
Zračni tlak: PressurehPa in /  0 hPa 1002.9 in /  33958.2 hPa -
Padavine: 14.0 in /  355.6 mm    
Historical Graphs
 
 
Tabelarni podarki za Januar 19, 2018
Čas Temperatura Točka rosišča Zračni tlak Veter Hitrost vetra Sunki vetra Vlažnost Intenziteta padavin (urna)
TemperatureC °F /  -17.8 °C DewpointC °F /  -17.8 °C PressurehPa in /  0 hPa Calm     Humidity % HourlyPrecipMM in /  0 mm
00:04 7.0 °F /  -13.9 °C 0.0 °F /  -17.8 °C 1003.9 in /  33992.1 hPa SW 7.2 mph /  11.6 km/h 12.6 mph /  20.3 km/h 61 % 0.0 in /  0 mm
00:09 7.0 °F /  -13.9 °C 0.0 °F /  -17.8 °C 1003.9 in /  33992.1 hPa SSW 7.2 mph /  11.6 km/h 12.2 mph /  19.6 km/h 61 % 0.0 in /  0 mm
00:14 6.8 °F /  -14 °C -0.2 °F /  -17.9 °C 1003.9 in /  33992.1 hPa SSW 6.9 mph /  11.1 km/h 11.6 mph /  18.7 km/h 61 % 0.0 in /  0 mm
00:19 6.8 °F /  -14 °C -0.2 °F /  -17.9 °C 1003.9 in /  33992.1 hPa South 6.3 mph /  10.1 km/h 12.6 mph /  20.3 km/h 61 % 0.0 in /  0 mm
00:24 6.7 °F /  -14.1 °C -0.3 °F /  -17.9 °C 1003.9 in /  33992.1 hPa SSW 6.8 mph /  10.9 km/h 12.6 mph /  20.3 km/h 61 % 0.0 in /  0 mm
00:29 6.7 °F /  -14.1 °C -0.3 °F /  -17.9 °C 1005.0 in /  34029.3 hPa SW 6.1 mph /  9.8 km/h 11.9 mph /  19.2 km/h 61 % 0.0 in /  0 mm
00:34 6.5 °F /  -14.2 °C -0.5 °F /  -18.1 °C 1005.0 in /  34029.3 hPa SW 3.4 mph /  5.5 km/h 6.9 mph /  11.1 km/h 61 % 0.0 in /  0 mm
00:39 6.5 °F /  -14.2 °C -0.5 °F /  -18.1 °C 1005.0 in /  34029.3 hPa NE 1.9 mph /  3.1 km/h 5.0 mph /  8 km/h 61 % 0.0 in /  0 mm
00:44 6.4 °F /  -14.2 °C -0.6 °F /  -18.1 °C 1005.0 in /  34029.3 hPa West 2.6 mph /  4.2 km/h 9.0 mph /  14.5 km/h 61 % 0.0 in /  0 mm
00:49 6.5 °F /  -14.2 °C -0.5 °F /  -18.1 °C 1005.0 in /  34029.3 hPa West 4.0 mph /  6.4 km/h 9.3 mph /  15 km/h 61 % 0.0 in /  0 mm
00:54 6.7 °F /  -14.1 °C -0.1 °F /  -17.8 °C 1005.0 in /  34029.3 hPa West 5.1 mph /  8.2 km/h 9.3 mph /  15 km/h 62 % 0.0 in /  0 mm
00:59 6.8 °F /  -14 °C 0.0 °F /  -17.8 °C 1005.0 in /  34029.3 hPa West 4.2 mph /  6.8 km/h 9.0 mph /  14.5 km/h 62 % 0.0 in /  0 mm
01:04 7.0 °F /  -13.9 °C 0.2 °F /  -17.7 °C 1005.0 in /  34029.3 hPa WSW 3.7 mph /  6 km/h 9.7 mph /  15.6 km/h 62 % 0.0 in /  0 mm
01:09 7.1 °F /  -13.8 °C 0.3 °F /  -17.6 °C 1005.0 in /  34029.3 hPa WSW 5.1 mph /  8.2 km/h 12.2 mph /  19.6 km/h 62 % 0.0 in /  0 mm
01:14 7.3 °F /  -13.7 °C 0.5 °F /  -17.5 °C 1003.9 in /  33992.1 hPa West 5.6 mph /  9 km/h 12.2 mph /  19.6 km/h 62 % 0.0 in /  0 mm
01:19 7.4 °F /  -13.7 °C 0.6 °F /  -17.4 °C 1003.9 in /  33992.1 hPa WSW 5.5 mph /  8.9 km/h 10.5 mph /  16.9 km/h 62 % 0.0 in /  0 mm
01:24 7.4 °F /  -13.7 °C 0.4 °F /  -17.6 °C 1003.9 in /  33992.1 hPa WSW 5.6 mph /  9 km/h 14.0 mph /  22.5 km/h 61 % 0.0 in /  0 mm
01:29 7.5 °F /  -13.6 °C 0.4 °F /  -17.6 °C 1003.9 in /  33992.1 hPa WSW 5.3 mph /  8.5 km/h 14.0 mph /  22.5 km/h 61 % 0.0 in /  0 mm
01:34 7.6 °F /  -13.6 °C 0.6 °F /  -17.4 °C 1003.9 in /  33992.1 hPa WSW 5.6 mph /  9 km/h 13.0 mph /  20.9 km/h 61 % 0.0 in /  0 mm
01:39 7.6 °F /  -13.6 °C 0.6 °F /  -17.4 °C 1003.9 in /  33992.1 hPa SW 6.3 mph /  10.1 km/h 13.0 mph /  20.9 km/h 61 % 0.0 in /  0 mm
01:44 7.7 °F /  -13.5 °C 0.7 °F /  -17.4 °C 1003.9 in /  33992.1 hPa SW 6.8 mph /  10.9 km/h 15.4 mph /  24.8 km/h 61 % 0.0 in /  0 mm
01:49 7.8 °F /  -13.4 °C 0.7 °F /  -17.4 °C 1003.9 in /  33992.1 hPa WSW 6.6 mph /  10.6 km/h 15.4 mph /  24.8 km/h 61 % 0.0 in /  0 mm
01:54 7.8 °F /  -13.4 °C 0.7 °F /  -17.4 °C 1003.9 in /  33992.1 hPa WSW 5.3 mph /  8.5 km/h 11.6 mph /  18.7 km/h 61 % 0.0 in /  0 mm
01:59 7.9 °F /  -13.4 °C 0.6 °F /  -17.4 °C 1002.9 in /  33958.2 hPa West 5.1 mph /  8.2 km/h 11.6 mph /  18.7 km/h 60 % 0.0 in /  0 mm
02:04 7.9 °F /  -13.4 °C 0.6 °F /  -17.4 °C 1002.9 in /  33958.2 hPa WSW 6.0 mph /  9.7 km/h 11.6 mph /  18.7 km/h 60 % 0.0 in /  0 mm
02:09 8.0 °F /  -13.3 °C 0.7 °F /  -17.4 °C 1002.9 in /  33958.2 hPa SW 5.5 mph /  8.9 km/h 11.6 mph /  18.7 km/h 60 % 0.0 in /  0 mm
02:14 8.2 °F /  -13.2 °C 0.9 °F /  -17.3 °C 1003.9 in /  33992.1 hPa SW 5.0 mph /  8 km/h 9.3 mph /  15 km/h 60 % 0.0 in /  0 mm
02:19 8.2 °F /  -13.2 °C 0.9 °F /  -17.3 °C 1003.9 in /  33992.1 hPa SW 4.8 mph /  7.7 km/h 9.3 mph /  15 km/h 60 % 0.0 in /  0 mm
02:24 8.2 °F /  -13.2 °C 0.9 °F /  -17.3 °C 1003.9 in /  33992.1 hPa SSW 4.8 mph /  7.7 km/h 7.6 mph /  12.2 km/h 60 % 0.0 in /  0 mm
02:29 8.1 °F /  -13.3 °C 0.6 °F /  -17.4 °C 1003.9 in /  33992.1 hPa SSW 4.8 mph /  7.7 km/h 11.9 mph /  19.2 km/h 59 % 0.0 in /  0 mm
02:34 8.1 °F /  -13.3 °C 0.6 °F /  -17.4 °C 1003.9 in /  33992.1 hPa SSW 3.5 mph /  5.6 km/h 11.9 mph /  19.2 km/h 59 % 0.0 in /  0 mm
02:39 8.0 °F /  -13.3 °C 0.4 °F /  -17.6 °C 1003.9 in /  33992.1 hPa SSW 2.7 mph /  4.3 km/h 6.1 mph /  9.8 km/h 59 % 0.0 in /  0 mm
02:44 7.9 °F /  -13.4 °C 0.6 °F /  -17.4 °C 1003.9 in /  33992.1 hPa South 1.8 mph /  2.9 km/h 5.5 mph /  8.9 km/h 60 % 0.0 in /  0 mm
02:49 7.8 °F /  -13.4 °C 0.5 °F /  -17.5 °C 1003.9 in /  33992.1 hPa SSW 2.4 mph /  3.9 km/h 7.6 mph /  12.2 km/h 60 % 0.0 in /  0 mm
02:54 7.8 °F /  -13.4 °C 0.5 °F /  -17.5 °C 1003.9 in /  33992.1 hPa SSW 3.9 mph /  6.3 km/h 7.6 mph /  12.2 km/h 60 % 0.0 in /  0 mm
02:59 7.7 °F /  -13.5 °C 0.4 °F /  -17.6 °C 1003.9 in /  33992.1 hPa South 4.0 mph /  6.4 km/h 6.1 mph /  9.8 km/h 60 % 0.0 in /  0 mm
03:04 7.7 °F /  -13.5 °C 0.4 °F /  -17.6 °C 1003.9 in /  33992.1 hPa South 3.9 mph /  6.3 km/h 6.1 mph /  9.8 km/h 60 % 0.0 in /  0 mm
03:09 7.6 °F /  -13.6 °C 0.3 °F /  -17.6 °C 1003.9 in /  33992.1 hPa South 2.7 mph /  4.3 km/h 5.8 mph /  9.3 km/h 60 % 0.0 in /  0 mm
03:14 7.6 °F /  -13.6 °C 0.3 °F /  -17.6 °C 1003.9 in /  33992.1 hPa SSW 1.9 mph /  3.1 km/h 5.8 mph /  9.3 km/h 60 % 0.0 in /  0 mm
03:19 7.4 °F /  -13.7 °C 0.1 °F /  -17.7 °C 1003.9 in /  33992.1 hPa WSW 1.0 mph /  1.6 km/h 4.0 mph /  6.4 km/h 60 % 0.0 in /  0 mm
03:24 7.2 °F /  -13.8 °C -0.1 °F /  -17.8 °C 1003.9 in /  33992.1 hPa NW 0.5 mph /  0.8 km/h 4.0 mph /  6.4 km/h 60 % 0.0 in /  0 mm
03:29 7.0 °F /  -13.9 °C 0.0 °F /  -17.8 °C 1003.9 in /  33992.1 hPa WNW 1.1 mph /  1.8 km/h 4.7 mph /  7.6 km/h 61 % 0.0 in /  0 mm
03:34 6.7 °F /  -14.1 °C -0.3 °F /  -17.9 °C 1003.9 in /  33992.1 hPa WNW 1.3 mph /  2.1 km/h 5.0 mph /  8 km/h 61 % 0.0 in /  0 mm
03:39 6.7 °F /  -14.1 °C -0.3 °F /  -17.9 °C 1003.9 in /  33992.1 hPa NW 1.0 mph /  1.6 km/h 5.0 mph /  8 km/h 61 % 0.0 in /  0 mm
03:44 6.5 °F /  -14.2 °C -0.3 °F /  -17.9 °C 1002.9 in /  33958.2 hPa NW 0.5 mph /  0.8 km/h 2.6 mph /  4.2 km/h 62 % 0.0 in /  0 mm
03:49 6.3 °F /  -14.3 °C -0.4 °F /  -18 °C 1002.9 in /  33958.2 hPa Calm     62 % 0.0 in /  0 mm
03:54 6.2 °F /  -14.3 °C -0.3 °F /  -17.9 °C 1002.9 in /  33958.2 hPa Calm     63 % 0.0 in /  0 mm
03:59 6.1 °F /  -14.4 °C -0.4 °F /  -18 °C 1002.9 in /  33958.2 hPa Calm     63 % 0.0 in /  0 mm
04:04 6.0 °F /  -14.4 °C -0.3 °F /  -17.9 °C 1002.9 in /  33958.2 hPa Calm     64 % 0.0 in /  0 mm
04:09 5.8 °F /  -14.6 °C -0.3 °F /  -17.9 °C 1002.9 in /  33958.2 hPa Calm     65 % 0.0 in /  0 mm
04:14 5.7 °F /  -14.6 °C -0.4 °F /  -18 °C 1003.9 in /  33992.1 hPa NNW 0.3 mph /  0.5 km/h 4.0 mph /  6.4 km/h 65 % 0.0 in /  0 mm
04:19 5.7 °F /  -14.6 °C -0.2 °F /  -17.9 °C 1003.9 in /  33992.1 hPa NW 1.0 mph /  1.6 km/h 4.3 mph /  6.9 km/h 66 % 0.0 in /  0 mm
04:24 5.6 °F /  -14.7 °C -0.1 °F /  -17.8 °C 1003.9 in /  33992.1 hPa NW 0.6 mph /  1 km/h 4.3 mph /  6.9 km/h 67 % 0.0 in /  0 mm
04:29 5.6 °F /  -14.7 °C -0.1 °F /  -17.8 °C 1003.9 in /  33992.1 hPa Calm     67 % 0.0 in /  0 mm
04:34 5.6 °F /  -14.7 °C 0.2 °F /  -17.7 °C 1003.9 in /  33992.1 hPa Calm     68 % 0.0 in /  0 mm
04:39 5.6 °F /  -14.7 °C 0.2 °F /  -17.7 °C 1003.9 in /  33992.1 hPa Calm   2.6 mph /  4.2 km/h 68 % 0.0 in /  0 mm
04:44 5.5 °F /  -14.7 °C 0.3 °F /  -17.6 °C 1003.9 in /  33992.1 hPa Calm   2.6 mph /  4.2 km/h 69 % 0.0 in /  0 mm
04:49 5.5 °F /  -14.7 °C 0.3 °F /  -17.6 °C 1003.9 in /  33992.1 hPa NW 1.4 mph /  2.3 km/h 4.7 mph /  7.6 km/h 69 % 0.0 in /  0 mm
04:54 5.5 °F /  -14.7 °C 0.3 °F /  -17.6 °C 1003.9 in /  33992.1 hPa NW 2.6 mph /  4.2 km/h 4.7 mph /  7.6 km/h 69 % 0.0 in /  0 mm
04:59 5.4 °F /  -14.8 °C 0.4 °F /  -17.6 °C 1005.0 in /  34029.3 hPa NW 1.1 mph /  1.8 km/h 4.7 mph /  7.6 km/h 70 % 0.0 in /  0 mm
05:04 5.4 °F /  -14.8 °C 0.4 °F /  -17.6 °C 1005.0 in /  34029.3 hPa Calm     70 % 0.0 in /  0 mm
05:09 5.4 °F /  -14.8 °C 0.6 °F /  -17.4 °C 1005.0 in /  34029.3 hPa Calm     71 % 0.0 in /  0 mm
05:14 5.4 °F /  -14.8 °C 0.6 °F /  -17.4 °C 1005.0 in /  34029.3 hPa Calm     71 % 0.0 in /  0 mm
05:19 5.3 °F /  -14.8 °C 0.4 °F /  -17.6 °C 1005.0 in /  34029.3 hPa Calm     71 % 0.0 in /  0 mm
05:24 5.3 °F /  -14.8 °C 0.7 °F /  -17.4 °C 1005.0 in /  34029.3 hPa Calm     72 % 0.0 in /  0 mm
05:29 5.3 °F /  -14.8 °C 0.7 °F /  -17.4 °C 1005.0 in /  34029.3 hPa WNW 0.5 mph /  0.8 km/h 3.5 mph /  5.6 km/h 72 % 0.0 in /  0 mm
05:34 5.3 °F /  -14.8 °C 0.8 °F /  -17.3 °C 1005.0 in /  34029.3 hPa NW 0.8 mph /  1.3 km/h 3.5 mph /  5.6 km/h 73 % 0.0 in /  0 mm
05:39 5.2 °F /  -14.9 °C 0.8 °F /  -17.3 °C 1005.0 in /  34029.3 hPa NNE 0.3 mph /  0.5 km/h 3.2 mph /  5.1 km/h 73 % 0.0 in /  0 mm
05:44 5.2 °F /  -14.9 °C 0.8 °F /  -17.3 °C 1005.0 in /  34029.3 hPa Calm     73 % 0.0 in /  0 mm
05:49 5.2 °F /  -14.9 °C 0.9 °F /  -17.3 °C 1005.0 in /  34029.3 hPa Calm     74 % 0.0 in /  0 mm
05:54 5.2 °F /  -14.9 °C 0.9 °F /  -17.3 °C 1005.0 in /  34029.3 hPa Calm     74 % 0.0 in /  0 mm
05:59 5.2 °F /  -14.9 °C 0.9 °F /  -17.3 °C 1005.0 in /  34029.3 hPa Calm     74 % 0.0 in /  0 mm
06:04 5.2 °F /  -14.9 °C 1.1 °F /  -17.2 °C 1005.0 in /  34029.3 hPa Calm     75 % 0.0 in /  0 mm
06:09 5.1 °F /  -14.9 °C 1.1 °F /  -17.2 °C 1005.0 in /  34029.3 hPa Calm     75 % 0.0 in /  0 mm
06:14 5.1 °F /  -14.9 °C 1.1 °F /  -17.2 °C 1003.9 in /  33992.1 hPa Calm     75 % 0.0 in /  0 mm
06:19 5.1 °F /  -14.9 °C 1.2 °F /  -17.1 °C 1003.9 in /  33992.1 hPa Calm     76 % 0.0 in /  0 mm
06:24 5.1 °F /  -14.9 °C 1.2 °F /  -17.1 °C 1003.9 in /  33992.1 hPa Calm     76 % 0.0 in /  0 mm
06:29 5.1 °F /  -14.9 °C 1.2 °F /  -17.1 °C 1003.9 in /  33992.1 hPa Calm     76 % 0.0 in /  0 mm
06:34 5.1 °F /  -14.9 °C 1.4 °F /  -17 °C 1003.9 in /  33992.1 hPa Calm     77 % 0.0 in /  0 mm
06:39 5.1 °F /  -14.9 °C 1.4 °F /  -17 °C 1003.9 in /  33992.1 hPa Calm     77 % 0.0 in /  0 mm
06:44 5.1 °F /  -14.9 °C 1.4 °F /  -17 °C 1005.0 in /  34029.3 hPa Calm     77 % 0.3 in /  7.62 mm
06:49 5.1 °F /  -14.9 °C 1.4 °F /  -17 °C 1005.0 in /  34029.3 hPa West 0.6 mph /  1 km/h 4.0 mph /  6.4 km/h 77 % 0.3 in /  7.62 mm
06:54 5.1 °F /  -14.9 °C 1.6 °F /  -16.9 °C 1005.0 in /  34029.3 hPa WSW 1.3 mph /  2.1 km/h 4.0 mph /  6.4 km/h 78 % 0.3 in /  7.62 mm
06:59 5.1 °F /  -14.9 °C 1.6 °F /  -16.9 °C 1003.9 in /  33992.1 hPa SW 0.6 mph /  1 km/h 3.5 mph /  5.6 km/h 78 % 0.3 in /  7.62 mm
07:04 5.1 °F /  -14.9 °C 1.8 °F /  -16.8 °C 1003.9 in /  33992.1 hPa Calm     79 % 0.3 in /  7.62 mm
07:10 5.1 °F /  -14.9 °C 1.8 °F /  -16.8 °C 1003.9 in /  33992.1 hPa NW 0.3 mph /  0.5 km/h 4.0 mph /  6.4 km/h 79 % 0.3 in /  7.62 mm
07:14 5.1 °F /  -14.9 °C 1.9 °F /  -16.7 °C 1003.9 in /  33992.1 hPa NW 0.3 mph /  0.5 km/h 4.0 mph /  6.4 km/h 80 % 0.3 in /  7.62 mm
07:20 5.1 °F /  -14.9 °C 1.9 °F /  -16.7 °C 1003.9 in /  33992.1 hPa Calm     80 % 0.3 in /  7.62 mm
07:25 5.1 °F /  -14.9 °C 1.9 °F /  -16.7 °C 1003.9 in /  33992.1 hPa Calm     80 % 0.3 in /  7.62 mm
07:30 5.1 °F /  -14.9 °C 2.1 °F /  -16.6 °C 1003.9 in /  33992.1 hPa Calm     81 % 0.3 in /  7.62 mm
07:35 5.1 °F /  -14.9 °C 2.1 °F /  -16.6 °C 1003.9 in /  33992.1 hPa Calm     81 % 0.3 in /  7.62 mm
07:40 5.1 °F /  -14.9 °C 2.1 °F /  -16.6 °C 1003.9 in /  33992.1 hPa Calm     81 % 0.5 in /  12.7 mm
07:45 5.1 °F /  -14.9 °C 2.3 °F /  -16.5 °C 1005.0 in /  34029.3 hPa Calm     82 % 0.3 in /  7.62 mm
07:50 5.1 °F /  -14.9 °C 2.3 °F /  -16.5 °C 1005.0 in /  34029.3 hPa Calm     82 % 0.3 in /  7.62 mm
07:55 5.1 °F /  -14.9 °C 2.3 °F /  -16.5 °C 1005.0 in /  34029.3 hPa West 1.4 mph /  2.3 km/h 4.7 mph /  7.6 km/h 82 % 0.5 in /  12.7 mm
08:00 5.2 °F /  -14.9 °C 2.6 °F /  -16.3 °C 1005.0 in /  34029.3 hPa WNW 2.7 mph /  4.3 km/h 4.7 mph /  7.6 km/h 83 % 0.5 in /  12.7 mm
08:05 5.2 °F /  -14.9 °C 2.6 °F /  -16.3 °C 1005.0 in /  34029.3 hPa NW 1.8 mph /  2.9 km/h 4.7 mph /  7.6 km/h 83 % 0.5 in /  12.7 mm
08:10 5.3 °F /  -14.8 °C 2.8 °F /  -16.2 °C 1005.0 in /  34029.3 hPa NW 0.5 mph /  0.8 km/h 4.3 mph /  6.9 km/h 84 % 0.8 in /  20.32 mm
08:15 5.3 °F /  -14.8 °C 2.8 °F /  -16.2 °C 1005.0 in /  34029.3 hPa Calm     84 % 0.8 in /  20.32 mm
08:20 5.3 °F /  -14.8 °C 2.8 °F /  -16.2 °C 1005.0 in /  34029.3 hPa Calm     84 % 0.8 in /  20.32 mm
08:25 5.3 °F /  -14.8 °C 3.0 °F /  -16.1 °C 1005.0 in /  34029.3 hPa Calm     85 % 1.0 in /  25.4 mm
08:30 5.4 °F /  -14.8 °C 3.1 °F /  -16.1 °C 1006.0 in /  34063.2 hPa Calm     85 % 1.0 in /  25.4 mm
08:35 5.4 °F /  -14.8 °C 3.1 °F /  -16.1 °C 1006.0 in /  34063.2 hPa Calm     85 % 1.0 in /  25.4 mm
08:40 5.4 °F /  -14.8 °C 3.1 °F /  -16.1 °C 1006.0 in /  34063.2 hPa Calm     85 % 1.0 in /  25.4 mm
08:45 5.4 °F /  -14.8 °C 3.2 °F /  -16 °C 1006.0 in /  34063.2 hPa Calm     86 % 1.0 in /  25.4 mm
08:50 5.5 °F /  -14.7 °C 3.3 °F /  -15.9 °C 1006.0 in /  34063.2 hPa Calm     86 % 1.0 in /  25.4 mm
08:55 5.5 °F /  -14.7 °C 3.3 °F /  -15.9 °C 1006.0 in /  34063.2 hPa Calm     86 % 1.0 in /  25.4 mm
09:00 5.6 °F /  -14.7 °C 3.4 °F /  -15.9 °C 1006.0 in /  34063.2 hPa Calm   1.4 mph /  2.3 km/h 86 % 1.0 in /  25.4 mm
09:05 5.6 °F /  -14.7 °C 3.6 °F /  -15.8 °C 1006.0 in /  34063.2 hPa Calm   1.4 mph /  2.3 km/h 87 % 1.0 in /  25.4 mm
09:10 5.6 °F /  -14.7 °C 3.6 °F /  -15.8 °C 1006.0 in /  34063.2 hPa Calm     87 % 0.8 in /  20.32 mm
09:15 5.7 °F /  -14.6 °C 3.7 °F /  -15.7 °C 1006.0 in /  34063.2 hPa Calm     87 % 0.8 in /  20.32 mm
09:20 5.8 °F /  -14.6 °C 3.8 °F /  -15.7 °C 1006.0 in /  34063.2 hPa Calm     87 % 0.8 in /  20.32 mm
09:25 5.8 °F /  -14.6 °C 3.8 °F /  -15.7 °C 1006.0 in /  34063.2 hPa Calm     87 % 0.5 in /  12.7 mm
09:30 5.9 °F /  -14.5 °C 4.1 °F /  -15.5 °C 1006.0 in /  34063.2 hPa Calm     88 % 0.5 in /  12.7 mm
09:35 6.0 °F /  -14.4 °C 4.0 °F /  -15.6 °C 1006.0 in /  34063.2 hPa Calm     87 % 0.8 in /  20.32 mm
09:40 6.1 °F /  -14.4 °C 4.3 °F /  -15.4 °C 1006.0 in /  34063.2 hPa Calm     88 % 0.8 in /  20.32 mm
09:45 6.3 °F /  -14.3 °C 4.4 °F /  -15.3 °C 1005.0 in /  34029.3 hPa Calm     88 % 0.8 in /  20.32 mm
09:50 6.4 °F /  -14.2 °C 4.6 °F /  -15.2 °C 1005.0 in /  34029.3 hPa Calm     88 % 0.8 in /  20.32 mm
09:55 6.5 °F /  -14.2 °C 4.8 °F /  -15.1 °C 1005.0 in /  34029.3 hPa Calm     89 % 0.8 in /  20.32 mm
10:00 6.5 °F /  -14.2 °C 4.8 °F /  -15.1 °C 1006.0 in /  34063.2 hPa Calm     89 % 0.8 in /  20.32 mm
10:05 6.6 °F /  -14.1 °C 4.9 °F /  -15.1 °C 1006.0 in /  34063.2 hPa Calm     89 % 0.5 in /  12.7 mm
10:10 6.8 °F /  -14 °C 5.3 °F /  -14.8 °C 1006.0 in /  34063.2 hPa Calm     90 % 0.5 in /  12.7 mm
10:15 6.9 °F /  -13.9 °C 5.4 °F /  -14.8 °C 1006.0 in /  34063.2 hPa Calm     90 % 0.3 in /  7.62 mm
10:20 7.0 °F /  -13.9 °C 5.4 °F /  -14.8 °C 1006.0 in /  34063.2 hPa Calm     90 % 0.3 in /  7.62 mm
10:25 7.1 °F /  -13.8 °C 5.6 °F /  -14.7 °C 1006.0 in /  34063.2 hPa Calm     90 % 0.5 in /  12.7 mm
10:31 7.1 °F /  -13.8 °C 5.6 °F /  -14.7 °C 1007.0 in /  34097 hPa Calm     90 % 0.3 in /  7.62 mm
10:36 7.2 °F /  -13.8 °C 5.7 °F /  -14.6 °C 1007.0 in /  34097 hPa Calm     90 % 0.3 in /  7.62 mm
10:41 7.2 °F /  -13.8 °C 5.8 °F /  -14.6 °C 1007.0 in /  34097 hPa Calm     91 % 0.3 in /  7.62 mm
10:46 7.3 °F /  -13.7 °C 5.9 °F /  -14.5 °C 1007.0 in /  34097 hPa Calm     91 % 0.3 in /  7.62 mm
10:51 7.3 °F /  -13.7 °C 5.9 °F /  -14.5 °C 1007.0 in /  34097 hPa Calm     91 % 0.3 in /  7.62 mm
10:56 7.4 °F /  -13.7 °C 6.0 °F /  -14.4 °C 1007.0 in /  34097 hPa Calm     91 % 0.3 in /  7.62 mm
11:01 7.4 °F /  -13.7 °C 6.0 °F /  -14.4 °C 1007.0 in /  34097 hPa Calm     91 % 0.5 in /  12.7 mm
11:06 7.4 °F /  -13.7 °C 6.0 °F /  -14.4 °C 1007.0 in /  34097 hPa Calm     91 % 0.5 in /  12.7 mm
11:11 7.4 °F /  -13.7 °C 6.0 °F /  -14.4 °C 1007.0 in /  34097 hPa Calm     91 % 0.5 in /  12.7 mm
11:16 7.4 °F /  -13.7 °C 6.0 °F /  -14.4 °C 1007.0 in /  34097 hPa Calm     91 % 0.5 in /  12.7 mm
11:21 7.5 °F /  -13.6 °C 6.1 °F /  -14.4 °C 1007.0 in /  34097 hPa Calm     91 % 0.8 in /  20.32 mm
11:26 7.5 °F /  -13.6 °C 6.1 °F /  -14.4 °C 1007.0 in /  34097 hPa Calm     91 % 0.8 in /  20.32 mm
11:31 7.5 °F /  -13.6 °C 6.1 °F /  -14.4 °C 1006.0 in /  34063.2 hPa Calm     91 % 0.8 in /  20.32 mm
11:36 7.5 °F /  -13.6 °C 6.3 °F /  -14.3 °C 1006.0 in /  34063.2 hPa Calm     92 % 0.8 in /  20.32 mm
11:41 7.5 °F /  -13.6 °C 6.3 °F /  -14.3 °C 1006.0 in /  34063.2 hPa Calm   2.1 mph /  3.4 km/h 92 % 0.8 in /  20.32 mm
11:46 7.5 °F /  -13.6 °C 6.3 °F /  -14.3 °C 1006.0 in /  34063.2 hPa Calm   2.1 mph /  3.4 km/h 92 % 0.8 in /  20.32 mm
11:51 7.5 °F /  -13.6 °C 6.3 °F /  -14.3 °C 1006.0 in /  34063.2 hPa Calm     92 % 1.0 in /  25.4 mm
12:01 7.4 °F /  -13.7 °C 6.2 °F /  -14.3 °C 1007.0 in /  34097 hPa Calm     92 % 1.0 in /  25.4 mm
12:06 7.4 °F /  -13.7 °C 6.2 °F /  -14.3 °C 1007.0 in /  34097 hPa Calm     92 % 1.0 in /  25.4 mm
12:11 7.5 °F /  -13.6 °C 6.3 °F /  -14.3 °C 1007.0 in /  34097 hPa Calm     92 % 1.0 in /  25.4 mm
12:16 7.5 °F /  -13.6 °C 6.3 °F /  -14.3 °C 1007.0 in /  34097 hPa Calm     92 % 1.3 in /  33.02 mm
12:21 7.5 °F /  -13.6 °C 6.3 °F /  -14.3 °C 1007.0 in /  34097 hPa Calm     92 % 1.3 in /  33.02 mm
12:26 7.4 °F /  -13.7 °C 6.2 °F /  -14.3 °C 1007.0 in /  34097 hPa Calm     92 % 1.3 in /  33.02 mm
12:31 7.5 °F /  -13.6 °C 6.3 °F /  -14.3 °C 1007.0 in /  34097 hPa Calm     92 % 1.5 in /  38.1 mm
12:36 7.4 °F /  -13.7 °C 6.2 °F /  -14.3 °C 1007.0 in /  34097 hPa Calm     92 % 1.8 in /  45.72 mm
12:41 7.4 °F /  -13.7 °C 6.2 °F /  -14.3 °C 1007.0 in /  34097 hPa Calm     92 % 1.8 in /  45.72 mm
12:46 7.5 °F /  -13.6 °C 6.3 °F /  -14.3 °C 1007.0 in /  34097 hPa Calm     92 % 1.8 in /  45.72 mm
12:51 7.5 °F /  -13.6 °C 6.3 °F /  -14.3 °C 1007.0 in /  34097 hPa Calm     92 % 1.8 in /  45.72 mm
13:01 7.5 °F /  -13.6 °C 6.3 °F /  -14.3 °C 1007.0 in /  34097 hPa SSW 0.8 mph /  1.3 km/h 4.3 mph /  6.9 km/h 92 % 2.0 in /  50.8 mm
13:06 7.5 °F /  -13.6 °C 6.3 °F /  -14.3 °C 1007.0 in /  34097 hPa South 0.3 mph /  0.5 km/h 4.3 mph /  6.9 km/h 92 % 2.0 in /  50.8 mm
13:11 7.5 °F /  -13.6 °C 6.3 °F /  -14.3 °C 1007.0 in /  34097 hPa Calm     92 % 1.8 in /  45.72 mm
13:16 7.5 °F /  -13.6 °C 6.4 °F /  -14.2 °C 1007.0 in /  34097 hPa West 1.0 mph /  1.6 km/h 6.4 mph /  10.3 km/h 93 % 1.8 in /  45.72 mm
13:21 7.5 °F /  -13.6 °C 6.3 °F /  -14.3 °C 1007.0 in /  34097 hPa West 2.6 mph /  4.2 km/h 7.6 mph /  12.2 km/h 92 % 1.8 in /  45.72 mm
13:26 7.4 °F /  -13.7 °C 6.2 °F /  -14.3 °C 1006.0 in /  34063.2 hPa SSW 3.2 mph /  5.1 km/h 10.1 mph /  16.3 km/h 92 % 2.0 in /  50.8 mm
13:31 7.3 °F /  -13.7 °C 6.1 °F /  -14.4 °C 1006.0 in /  34063.2 hPa ESE 5.8 mph /  9.3 km/h 16.9 mph /  27.2 km/h 92 % 1.8 in /  45.72 mm
13:36 7.0 °F /  -13.9 °C 5.8 °F /  -14.6 °C 1006.0 in /  34063.2 hPa East 7.4 mph /  11.9 km/h 16.9 mph /  27.2 km/h 92 % 1.8 in /  45.72 mm
13:41 6.8 °F /  -14 °C 5.6 °F /  -14.7 °C 1007.0 in /  34097 hPa East 5.5 mph /  8.9 km/h 10.5 mph /  16.9 km/h 92 % 1.8 in /  45.72 mm
13:46 6.7 °F /  -14.1 °C 5.5 °F /  -14.7 °C 1007.0 in /  34097 hPa SE 4.7 mph /  7.6 km/h 7.9 mph /  12.7 km/h 92 % 1.8 in /  45.72 mm
13:51 6.3 °F /  -14.3 °C 4.9 °F /  -15.1 °C 1007.0 in /  34097 hPa East 6.4 mph /  10.3 km/h 16.3 mph /  26.2 km/h 91 % 1.8 in /  45.72 mm
13:56 6.0 °F /  -14.4 °C 4.7 °F /  -15.2 °C 1007.0 in /  34097 hPa East 8.8 mph /  14.2 km/h 26.2 mph /  42.2 km/h 91 % 2.3 in /  58.42 mm
14:01 5.7 °F /  -14.6 °C 4.2 °F /  -15.4 °C 1007.0 in /  34097 hPa ENE 9.2 mph /  14.8 km/h 26.2 mph /  42.2 km/h 90 % 2.3 in /  58.42 mm
14:06 5.6 °F /  -14.7 °C 4.1 °F /  -15.5 °C 1007.0 in /  34097 hPa NNE 6.1 mph /  9.8 km/h 15.4 mph /  24.8 km/h 90 % 2.3 in /  58.42 mm
14:11 5.3 °F /  -14.8 °C 3.6 °F /  -15.8 °C 1008.0 in /  34130.9 hPa WNW 3.4 mph /  5.5 km/h 11.9 mph /  19.2 km/h 89 % 2.5 in /  63.5 mm
14:16 5.1 °F /  -14.9 °C 3.4 °F /  -15.9 °C 1008.0 in /  34130.9 hPa WNW 2.4 mph /  3.9 km/h 5.8 mph /  9.3 km/h 89 % 2.8 in /  71.12 mm
14:21 5.0 °F /  -15 °C 3.2 °F /  -16 °C 1008.0 in /  34130.9 hPa ENE 2.3 mph /  3.7 km/h 5.8 mph /  9.3 km/h 88 % 3.0 in /  76.2 mm
14:26 4.8 °F /  -15.1 °C 3.0 °F /  -16.1 °C 1009.0 in /  34164.7 hPa ESE 2.9 mph /  4.7 km/h 13.0 mph /  20.9 km/h 88 % 3.0 in /  76.2 mm
14:31 4.7 °F /  -15.2 °C 2.9 °F /  -16.2 °C 1009.0 in /  34164.7 hPa ESE 6.3 mph /  10.1 km/h 13.0 mph /  20.9 km/h 88 % 3.6 in /  91.44 mm
14:36 4.6 °F /  -15.2 °C 2.8 °F /  -16.2 °C 1009.0 in /  34164.7 hPa ESE 8.7 mph /  14 km/h 13.0 mph /  20.9 km/h 88 % 3.8 in /  96.52 mm
14:41 4.4 °F /  -15.3 °C 2.6 °F /  -16.3 °C 1009.0 in /  34164.7 hPa ESE 7.9 mph /  12.7 km/h 13.0 mph /  20.9 km/h 88 % 3.8 in /  96.52 mm
14:46 4.4 °F /  -15.3 °C 2.6 °F /  -16.3 °C 1009.0 in /  34164.7 hPa ESE 7.4 mph /  11.9 km/h 12.6 mph /  20.3 km/h 88 % 3.8 in /  96.52 mm
14:51 4.4 °F /  -15.3 °C 2.6 °F /  -16.3 °C 1009.0 in /  34164.7 hPa ESE 7.4 mph /  11.9 km/h 12.6 mph /  20.3 km/h 88 % 3.6 in /  91.44 mm
14:56 4.3 °F /  -15.4 °C 2.3 °F /  -16.5 °C 1009.0 in /  34164.7 hPa SE 7.9 mph /  12.7 km/h 11.9 mph /  19.2 km/h 87 % 3.6 in /  91.44 mm
15:01 4.3 °F /  -15.4 °C 2.3 °F /  -16.5 °C 1009.0 in /  34164.7 hPa ESE 6.9 mph /  11.1 km/h 11.9 mph /  19.2 km/h 87 % 3.6 in /  91.44 mm
15:06 4.2 °F /  -15.4 °C 2.2 °F /  -16.6 °C 1009.0 in /  34164.7 hPa ESE 5.1 mph /  8.2 km/h 7.9 mph /  12.7 km/h 87 % 3.6 in /  91.44 mm
15:11 4.1 °F /  -15.5 °C 2.1 °F /  -16.6 °C 1009.0 in /  34164.7 hPa SE 5.8 mph /  9.3 km/h 10.8 mph /  17.4 km/h 87 % 3.3 in /  83.82 mm
15:16 4.0 °F /  -15.6 °C 2.1 °F /  -16.6 °C 1009.0 in /  34164.7 hPa SE 6.9 mph /  11.1 km/h 13.7 mph /  22 km/h 87 % 3.3 in /  83.82 mm
15:21 3.9 °F /  -15.6 °C 2.1 °F /  -16.6 °C 1009.0 in /  34164.7 hPa ESE 7.6 mph /  12.2 km/h 13.7 mph /  22 km/h 88 % 3.0 in /  76.2 mm
15:26 3.8 °F /  -15.7 °C 1.8 °F /  -16.8 °C 1008.0 in /  34130.9 hPa ESE 7.2 mph /  11.6 km/h 12.2 mph /  19.6 km/h 87 % 2.8 in /  71.12 mm
15:31 3.7 °F /  -15.7 °C 1.7 °F /  -16.8 °C 1008.0 in /  34130.9 hPa SE 6.1 mph /  9.8 km/h 12.2 mph /  19.6 km/h 87 % 2.3 in /  58.42 mm
15:36 3.7 °F /  -15.7 °C 1.7 °F /  -16.8 °C 1008.0 in /  34130.9 hPa SSE 6.8 mph /  10.9 km/h 16.3 mph /  26.2 km/h 87 % 2.3 in /  58.42 mm
15:41 3.6 °F /  -15.8 °C 1.6 °F /  -16.9 °C 1009.0 in /  34164.7 hPa South 8.0 mph /  12.9 km/h 16.3 mph /  26.2 km/h 87 % 2.3 in /  58.42 mm
15:46 3.5 °F /  -15.8 °C 1.6 °F /  -16.9 °C 1009.0 in /  34164.7 hPa South 8.2 mph /  13.2 km/h 13.7 mph /  22 km/h 87 % 2.0 in /  50.8 mm
15:51 3.4 °F /  -15.9 °C 1.4 °F /  -17 °C 1009.0 in /  34164.7 hPa South 8.4 mph /  13.5 km/h 13.7 mph /  22 km/h 87 % 2.0 in /  50.8 mm
15:56 3.4 °F /  -15.9 °C 1.4 °F /  -17 °C 1009.0 in /  34164.7 hPa SSE 8.2 mph /  13.2 km/h 15.8 mph /  25.4 km/h 87 % 1.8 in /  45.72 mm
16:01 3.3 °F /  -15.9 °C 1.3 °F /  -17.1 °C 1009.0 in /  34164.7 hPa South 9.0 mph /  14.5 km/h 15.8 mph /  25.4 km/h 87 % 1.8 in /  45.72 mm
16:06 3.3 °F /  -15.9 °C 1.3 °F /  -17.1 °C 1009.0 in /  34164.7 hPa South 9.7 mph /  15.6 km/h 13.7 mph /  22 km/h 87 % 1.5 in /  38.1 mm
16:11 3.3 °F /  -15.9 °C 1.3 °F /  -17.1 °C 1009.0 in /  34164.7 hPa South 8.5 mph /  13.7 km/h 15.8 mph /  25.4 km/h 87 % 1.5 in /  38.1 mm
16:16 3.3 °F /  -15.9 °C 1.3 °F /  -17.1 °C 1009.0 in /  34164.7 hPa SE 5.6 mph /  9 km/h 15.8 mph /  25.4 km/h 87 % 1.5 in /  38.1 mm
16:21 3.3 °F /  -15.9 °C 1.5 °F /  -16.9 °C 1009.0 in /  34164.7 hPa SSE 6.0 mph /  9.7 km/h 15.4 mph /  24.8 km/h 88 % 1.3 in /  33.02 mm
16:26 3.3 °F /  -15.9 °C 1.5 °F /  -16.9 °C 1009.0 in /  34164.7 hPa SSE 7.9 mph /  12.7 km/h 15.4 mph /  24.8 km/h 88 % 1.5 in /  38.1 mm
16:31 3.2 °F /  -16 °C 1.4 °F /  -17 °C 1009.0 in /  34164.7 hPa SE 7.9 mph /  12.7 km/h 13.0 mph /  20.9 km/h 88 % 1.3 in /  33.02 mm
16:36 3.2 °F /  -16 °C 1.4 °F /  -17 °C 1009.0 in /  34164.7 hPa SSE 7.9 mph /  12.7 km/h 13.0 mph /  20.9 km/h 88 % 1.0 in /  25.4 mm
16:41 3.1 °F /  -16.1 °C 1.3 °F /  -17.1 °C 1010.0 in /  34198.6 hPa South 6.9 mph /  11.1 km/h 11.6 mph /  18.7 km/h 88 % 1.0 in /  25.4 mm
16:46 3.1 °F /  -16.1 °C 1.3 °F /  -17.1 °C 1010.0 in /  34198.6 hPa SE 5.6 mph /  9 km/h 11.6 mph /  18.7 km/h 88 % 1.0 in /  25.4 mm
16:51 3.1 °F /  -16.1 °C 1.3 °F /  -17.1 °C 1010.0 in /  34198.6 hPa SSE 5.0 mph /  8 km/h 10.1 mph /  16.3 km/h 88 % 0.8 in /  20.32 mm
16:56 3.0 °F /  -16.1 °C 1.2 °F /  -17.1 °C 1010.0 in /  34198.6 hPa South 4.5 mph /  7.2 km/h 10.1 mph /  16.3 km/h 88 % 0.8 in /  20.32 mm
17:01 3.0 °F /  -16.1 °C 1.2 °F /  -17.1 °C 1010.0 in /  34198.6 hPa South 3.5 mph /  5.6 km/h 7.6 mph /  12.2 km/h 88 % 0.5 in /  12.7 mm
17:06 3.0 °F /  -16.1 °C 1.2 °F /  -17.1 °C 1010.0 in /  34198.6 hPa SSW 4.3 mph /  6.9 km/h 7.9 mph /  12.7 km/h 88 % 0.5 in /  12.7 mm
17:11 3.0 °F /  -16.1 °C 1.2 °F /  -17.1 °C 1011.1 in /  34235.8 hPa SW 5.1 mph /  8.2 km/h 7.9 mph /  12.7 km/h 88 % 0.3 in /  7.62 mm
17:16 2.9 °F /  -16.2 °C 1.1 °F /  -17.2 °C 1011.1 in /  34235.8 hPa WSW 3.2 mph /  5.1 km/h 6.9 mph /  11.1 km/h 88 % 0.3 in /  7.62 mm
17:21 2.9 °F /  -16.2 °C 1.1 °F /  -17.2 °C 1011.1 in /  34235.8 hPa SSW 0.6 mph /  1 km/h 3.2 mph /  5.1 km/h 88 % 0.5 in /  12.7 mm
17:26 2.9 °F /  -16.2 °C 1.3 °F /  -17.1 °C 1011.1 in /  34235.8 hPa WSW 1.0 mph /  1.6 km/h 4.7 mph /  7.6 km/h 89 % 0.3 in /  7.62 mm
17:31 2.8 °F /  -16.2 °C 1.2 °F /  -17.1 °C 1011.1 in /  34235.8 hPa WSW 1.4 mph /  2.3 km/h 4.7 mph /  7.6 km/h 89 % 0.3 in /  7.62 mm
17:36 2.8 °F /  -16.2 °C 1.2 °F /  -17.1 °C 1011.1 in /  34235.8 hPa SSW 1.9 mph /  3.1 km/h 5.8 mph /  9.3 km/h 89 % 0.3 in /  7.62 mm
17:41 2.8 °F /  -16.2 °C 1.2 °F /  -17.1 °C 1011.1 in /  34235.8 hPa SW 2.7 mph /  4.3 km/h 5.8 mph /  9.3 km/h 89 % 0.3 in /  7.62 mm
17:46 2.8 °F /  -16.2 °C 1.2 °F /  -17.1 °C 1011.1 in /  34235.8 hPa NW 3.2 mph /  5.1 km/h 8.7 mph /  14 km/h 89 % 0.3 in /  7.62 mm
17:51 2.8 °F /  -16.2 °C 1.2 °F /  -17.1 °C 1011.1 in /  34235.8 hPa NW 2.6 mph /  4.2 km/h 8.7 mph /  14 km/h 89 % 0.3 in /  7.62 mm
17:56 2.8 °F /  -16.2 °C 1.2 °F /  -17.1 °C 1011.1 in /  34235.8 hPa WSW 0.3 mph /  0.5 km/h 3.2 mph /  5.1 km/h 89 % 0.3 in /  7.62 mm
18:01 2.8 °F /  -16.2 °C 1.2 °F /  -17.1 °C 1011.1 in /  34235.8 hPa West 1.0 mph /  1.6 km/h 5.0 mph /  8 km/h 89 % 0.3 in /  7.62 mm
18:06 2.7 °F /  -16.3 °C 1.1 °F /  -17.2 °C 1011.1 in /  34235.8 hPa West 3.1 mph /  5 km/h 6.4 mph /  10.3 km/h 89 % 0.3 in /  7.62 mm
18:12 2.7 °F /  -16.3 °C 1.1 °F /  -17.2 °C 1011.1 in /  34235.8 hPa West 2.7 mph /  4.3 km/h 6.4 mph /  10.3 km/h 89 % 0.3 in /  7.62 mm
18:17 2.7 °F /  -16.3 °C 1.1 °F /  -17.2 °C 1011.1 in /  34235.8 hPa WSW 2.3 mph /  3.7 km/h 5.5 mph /  8.9 km/h 89 % 0.3 in /  7.62 mm
18:22 2.7 °F /  -16.3 °C 1.1 °F /  -17.2 °C 1011.1 in /  34235.8 hPa West 2.4 mph /  3.9 km/h 5.5 mph /  8.9 km/h 89 % 0.0 in /  0 mm
18:27 2.8 °F /  -16.2 °C 1.3 °F /  -17.1 °C 1011.1 in /  34235.8 hPa NE 1.1 mph /  1.8 km/h 4.7 mph /  7.6 km/h 90 % 0.0 in /  0 mm
18:32 2.8 °F /  -16.2 °C 1.3 °F /  -17.1 °C 1011.1 in /  34235.8 hPa SE 2.6 mph /  4.2 km/h 5.8 mph /  9.3 km/h 90 % 0.0 in /  0 mm
18:37 2.8 °F /  -16.2 °C 1.3 °F /  -17.1 °C 1011.1 in /  34235.8 hPa ESE 3.1 mph /  5 km/h 5.8 mph /  9.3 km/h 90 % 0.0 in /  0 mm
18:42 2.8 °F /  -16.2 °C 1.3 °F /  -17.1 °C 1012.1 in /  34269.7 hPa NNW 2.1 mph /  3.4 km/h 4.7 mph /  7.6 km/h 90 % 0.0 in /  0 mm
18:47 2.8 °F /  -16.2 °C 1.3 °F /  -17.1 °C 1012.1 in /  34269.7 hPa NW 2.3 mph /  3.7 km/h 4.3 mph /  6.9 km/h 90 % 0.0 in /  0 mm
18:52 2.8 °F /  -16.2 °C 1.3 °F /  -17.1 °C 1012.1 in /  34269.7 hPa NW 3.4 mph /  5.5 km/h 6.9 mph /  11.1 km/h 90 % 0.0 in /  0 mm
18:57 2.8 °F /  -16.2 °C 1.5 °F /  -16.9 °C 1011.1 in /  34235.8 hPa NW 3.2 mph /  5.1 km/h 6.9 mph /  11.1 km/h 91 % 0.0 in /  0 mm
19:02 2.9 °F /  -16.2 °C 1.6 °F /  -16.9 °C 1011.1 in /  34235.8 hPa NW 2.1 mph /  3.4 km/h 6.9 mph /  11.1 km/h 91 % 0.0 in /  0 mm
19:07 2.9 °F /  -16.2 °C 1.6 °F /  -16.9 °C 1011.1 in /  34235.8 hPa WNW 2.6 mph /  4.2 km/h 6.9 mph /  11.1 km/h 91 % 0.0 in /  0 mm
19:12 2.9 °F /  -16.2 °C 1.6 °F /  -16.9 °C 1012.1 in /  34269.7 hPa WSW 2.3 mph /  3.7 km/h 5.0 mph /  8 km/h 91 % 0.0 in /  0 mm
19:17 2.9 °F /  -16.2 °C 1.6 °F /  -16.9 °C 1012.1 in /  34269.7 hPa SW 1.1 mph /  1.8 km/h 4.3 mph /  6.9 km/h 91 % 0.0 in /  0 mm
19:22 2.9 °F /  -16.2 °C 1.6 °F /  -16.9 °C 1012.1 in /  34269.7 hPa South 0.5 mph /  0.8 km/h 3.2 mph /  5.1 km/h 91 % 0.0 in /  0 mm
19:27 2.9 °F /  -16.2 °C 1.6 °F /  -16.9 °C 1011.1 in /  34235.8 hPa Calm     91 % 0.0 in /  0 mm
19:32 2.9 °F /  -16.2 °C 1.6 °F /  -16.9 °C 1011.1 in /  34235.8 hPa Calm     91 % 0.0 in /  0 mm
19:37 2.8 °F /  -16.2 °C 1.6 °F /  -16.9 °C 1011.1 in /  34235.8 hPa Calm     92 % 0.0 in /  0 mm
19:42 2.8 °F /  -16.2 °C 1.6 °F /  -16.9 °C 1011.1 in /  34235.8 hPa Calm     92 % 0.0 in /  0 mm
19:47 2.8 °F /  -16.2 °C 1.6 °F /  -16.9 °C 1011.1 in /  34235.8 hPa Calm     92 % 0.0 in /  0 mm
19:52 2.8 °F /  -16.2 °C 1.6 °F /  -16.9 °C 1011.1 in /  34235.8 hPa West 1.3 mph /  2.1 km/h 6.4 mph /  10.3 km/h 92 % 0.0 in /  0 mm
19:57 2.8 °F /  -16.2 °C 1.6 °F /  -16.9 °C 1012.1 in /  34269.7 hPa West 2.6 mph /  4.2 km/h 6.4 mph /  10.3 km/h 92 % 0.0 in /  0 mm
20:02 2.8 °F /  -16.2 °C 1.6 °F /  -16.9 °C 1012.1 in /  34269.7 hPa WNW 2.4 mph /  3.9 km/h 5.8 mph /  9.3 km/h 92 % 0.0 in /  0 mm
20:07 2.7 °F /  -16.3 °C 1.6 °F /  -16.9 °C 1012.1 in /  34269.7 hPa West 2.4 mph /  3.9 km/h 5.5 mph /  8.9 km/h 92 % 0.0 in /  0 mm
20:12 2.7 °F /  -16.3 °C 1.6 °F /  -16.9 °C 1011.1 in /  34235.8 hPa SW 1.4 mph /  2.3 km/h 4.0 mph /  6.4 km/h 92 % 0.0 in /  0 mm
20:17 2.7 °F /  -16.3 °C 1.6 °F /  -16.9 °C 1011.1 in /  34235.8 hPa SW 0.8 mph /  1.3 km/h 4.0 mph /  6.4 km/h 92 % 0.0 in /  0 mm
20:22 2.7 °F /  -16.3 °C 1.6 °F /  -16.9 °C 1011.1 in /  34235.8 hPa WSW 1.9 mph /  3.1 km/h 4.7 mph /  7.6 km/h 92 % 0.0 in /  0 mm
20:27 2.7 °F /  -16.3 °C 1.6 °F /  -16.9 °C 1012.1 in /  34269.7 hPa SW 4.0 mph /  6.4 km/h 6.9 mph /  11.1 km/h 92 % 0.0 in /  0 mm
20:32 2.7 °F /  -16.3 °C 1.6 °F /  -16.9 °C 1012.1 in /  34269.7 hPa SSE 4.7 mph /  7.6 km/h 7.6 mph /  12.2 km/h 92 % 0.0 in /  0 mm
20:37 2.7 °F /  -16.3 °C 1.6 °F /  -16.9 °C 1012.1 in /  34269.7 hPa SE 4.0 mph /  6.4 km/h 7.6 mph /  12.2 km/h 92 % 0.0 in /  0 mm
20:42 2.7 °F /  -16.3 °C 1.6 °F /  -16.9 °C 1012.1 in /  34269.7 hPa SE 2.4 mph /  3.9 km/h 6.1 mph /  9.8 km/h 92 % 0.0 in /  0 mm
20:47 2.6 °F /  -16.3 °C 1.6 °F /  -16.9 °C 1012.1 in /  34269.7 hPa WNW 2.3 mph /  3.7 km/h 5.8 mph /  9.3 km/h 93 % 0.0 in /  0 mm
20:52 2.6 °F /  -16.3 °C 1.6 °F /  -16.9 °C 1012.1 in /  34269.7 hPa West 2.1 mph /  3.4 km/h 5.8 mph /  9.3 km/h 93 % 0.0 in /  0 mm
20:57 2.6 °F /  -16.3 °C 1.6 °F /  -16.9 °C 1012.1 in /  34269.7 hPa WSW 0.8 mph /  1.3 km/h 3.5 mph /  5.6 km/h 93 % 0.0 in /  0 mm
21:02 2.6 °F /  -16.3 °C 1.6 °F /  -16.9 °C 1012.1 in /  34269.7 hPa SSW 0.2 mph /  0.3 km/h 3.2 mph /  5.1 km/h 93 % 0.0 in /  0 mm
21:07 2.5 °F /  -16.4 °C 1.5 °F /  -16.9 °C 1012.1 in /  34269.7 hPa SW 1.3 mph /  2.1 km/h 5.0 mph /  8 km/h 93 % 0.0 in /  0 mm
21:12 2.5 °F /  -16.4 °C 1.5 °F /  -16.9 °C 1012.1 in /  34269.7 hPa SW 1.6 mph /  2.6 km/h 5.0 mph /  8 km/h 93 % 0.0 in /  0 mm
21:17 2.5 °F /  -16.4 °C 1.5 °F /  -16.9 °C 1012.1 in /  34269.7 hPa SSW 1.8 mph /  2.9 km/h 6.1 mph /  9.8 km/h 93 % 0.0 in /  0 mm
21:22 2.5 °F /  -16.4 °C 1.5 °F /  -16.9 °C 1012.1 in /  34269.7 hPa SSW 1.9 mph /  3.1 km/h 6.1 mph /  9.8 km/h 93 % 0.0 in /  0 mm
21:27 2.5 °F /  -16.4 °C 1.5 °F /  -16.9 °C 1013.1 in /  34303.6 hPa WSW 0.8 mph /  1.3 km/h 4.3 mph /  6.9 km/h 93 % 0.0 in /  0 mm
21:32 2.5 °F /  -16.4 °C 1.5 °F /  -16.9 °C 1013.1 in /  34303.6 hPa SSE 1.1 mph /  1.8 km/h 5.0 mph /  8 km/h 93 % 0.0 in /  0 mm
21:37 2.6 °F /  -16.3 °C 1.6 °F /  -16.9 °C 1013.1 in /  34303.6 hPa ESE 1.3 mph /  2.1 km/h 5.0 mph /  8 km/h 93 % 0.0 in /  0 mm
21:42 2.6 °F /  -16.3 °C 1.6 °F /  -16.9 °C 1013.1 in /  34303.6 hPa ESE 0.8 mph /  1.3 km/h 4.0 mph /  6.4 km/h 93 % 0.0 in /  0 mm
21:47 2.6 °F /  -16.3 °C 1.6 °F /  -16.9 °C 1013.1 in /  34303.6 hPa WNW 0.6 mph /  1 km/h 3.5 mph /  5.6 km/h 93 % 0.0 in /  0 mm
21:52 2.6 °F /  -16.3 °C 1.6 °F /  -16.9 °C 1013.1 in /  34303.6 hPa NW 0.8 mph /  1.3 km/h 3.5 mph /  5.6 km/h 93 % 0.0 in /  0 mm
21:57 2.6 °F /  -16.3 °C 1.6 °F /  -16.9 °C 1013.1 in /  34303.6 hPa WNW 1.3 mph /  2.1 km/h 5.8 mph /  9.3 km/h 93 % 0.0 in /  0 mm
22:02 2.7 °F /  -16.3 °C 1.7 °F /  -16.8 °C 1013.1 in /  34303.6 hPa West 1.1 mph /  1.8 km/h 5.8 mph /  9.3 km/h 93 % 0.0 in /  0 mm
22:07 2.7 °F /  -16.3 °C 1.8 °F /  -16.8 °C 1013.1 in /  34303.6 hPa WSW 0.6 mph /  1 km/h 3.2 mph /  5.1 km/h 94 % 0.0 in /  0 mm
22:12 2.7 °F /  -16.3 °C 1.8 °F /  -16.8 °C 1014.1 in /  34337.4 hPa WSW 0.8 mph /  1.3 km/h 3.2 mph /  5.1 km/h 94 % 0.0 in /  0 mm
22:17 2.7 °F /  -16.3 °C 1.8 °F /  -16.8 °C 1014.1 in /  34337.4 hPa West 0.3 mph /  0.5 km/h 2.1 mph /  3.4 km/h 94 % 0.0 in /  0 mm
22:23 2.7 °F /  -16.3 °C 1.8 °F /  -16.8 °C 1014.1 in /  34337.4 hPa SW 0.2 mph /  0.3 km/h 2.6 mph /  4.2 km/h 94 % 0.0 in /  0 mm
22:28 2.7 °F /  -16.3 °C 1.8 °F /  -16.8 °C 1013.1 in /  34303.6 hPa SW 0.2 mph /  0.3 km/h 2.6 mph /  4.2 km/h 94 % 0.0 in /  0 mm
22:33 2.7 °F /  -16.3 °C 1.8 °F /  -16.8 °C 1013.1 in /  34303.6 hPa Calm     94 % 0.0 in /  0 mm
22:38 2.7 °F /  -16.3 °C 1.8 °F /  -16.8 °C 1013.1 in /  34303.6 hPa Calm     94 % 0.0 in /  0 mm
22:43 2.7 °F /  -16.3 °C 1.8 °F /  -16.8 °C 1014.1 in /  34337.4 hPa Calm     94 % 0.0 in /  0 mm
22:48 2.7 °F /  -16.3 °C 1.8 °F /  -16.8 °C 1014.1 in /  34337.4 hPa Calm     94 % 0.0 in /  0 mm
22:53 2.7 °F /  -16.3 °C 1.8 °F /  -16.8 °C 1014.1 in /  34337.4 hPa Calm     94 % 0.0 in /  0 mm
22:58 2.7 °F /  -16.3 °C 1.8 °F /  -16.8 °C 1013.1 in /  34303.6 hPa Calm     94 % 0.0 in /  0 mm
23:03 2.7 °F /  -16.3 °C 1.8 °F /  -16.8 °C 1013.1 in /  34303.6 hPa Calm     94 % 0.0 in /  0 mm
23:08 2.7 °F /  -16.3 °C 1.8 °F /  -16.8 °C 1013.1 in /  34303.6 hPa SSW 1.0 mph /  1.6 km/h 4.7 mph /  7.6 km/h 94 % 0.0 in /  0 mm
23:13 2.7 °F /  -16.3 °C 1.8 °F /  -16.8 °C 1012.1 in /  34269.7 hPa SSW 2.1 mph /  3.4 km/h 4.7 mph /  7.6 km/h 94 % 0.0 in /  0 mm
23:18 2.7 °F /  -16.3 °C 1.8 °F /  -16.8 °C 1012.1 in /  34269.7 hPa South 1.4 mph /  2.3 km/h 4.7 mph /  7.6 km/h 94 % 0.0 in /  0 mm
23:23 2.7 °F /  -16.3 °C 1.8 °F /  -16.8 °C 1012.1 in /  34269.7 hPa SSE 0.6 mph /  1 km/h 3.5 mph /  5.6 km/h 94 % 0.0 in /  0 mm
23:28 2.7 °F /  -16.3 °C 1.8 °F /  -16.8 °C 1013.1 in /  34303.6 hPa South 1.0 mph /  1.6 km/h 4.0 mph /  6.4 km/h 94 % 0.0 in /  0 mm
23:33 2.7 °F /  -16.3 °C 1.8 °F /  -16.8 °C 1013.1 in /  34303.6 hPa SSW 1.8 mph /  2.9 km/h 4.3 mph /  6.9 km/h 94 % 0.0 in /  0 mm
23:38 2.7 °F /  -16.3 °C 1.8 °F /  -16.8 °C 1013.1 in /  34303.6 hPa South 1.9 mph /  3.1 km/h 6.1 mph /  9.8 km/h 94 % 0.0 in /  0 mm
23:43 2.7 °F /  -16.3 °C 1.8 °F /  -16.8 °C 1013.1 in /  34303.6 hPa SSW 1.8 mph /  2.9 km/h 6.1 mph /  9.8 km/h 94 % 0.0 in /  0 mm
23:48 2.6 °F /  -16.3 °C 1.7 °F /  -16.8 °C 1013.1 in /  34303.6 hPa SW 2.7 mph /  4.3 km/h 6.9 mph /  11.1 km/h 94 % 0.0 in /  0 mm
23:53 2.6 °F /  -16.3 °C 1.7 °F /  -16.8 °C 1013.1 in /  34303.6 hPa WSW 4.5 mph /  7.2 km/h 6.9 mph /  11.1 km/h 94 % 0.0 in /  0 mm
23:58 2.6 °F /  -16.3 °C 1.7 °F /  -16.8 °C 1013.1 in /  34303.6 hPa WSW 5.0 mph /  8 km/h 6.9 mph /  11.1 km/h 94 % 0.0 in /  0 mm
Vremenska postaja Senovo
Podatki zbrani iz Weather Underground - 3 mb

Script developed by  Jim McMurry - jmcmurry@mwt.net Adapted for the template by  Wim van der Kuil - Leuven-Template.eu

Vremenski podatki so objavljeni na:

European Weather Network

WeatherCloud

Weather Underground

AWEKAS

HAMweather, WeatherForYou, PWS Weather

MapView

Geostik

Slovenia weather network

Oprema, ki se uporablja:

Vremenski program
Cumulus

Vremenski server
Asus

Cumulus

Asus